Portada
METAR-TAF:

METAR-TAF

Aeroports :

Palembang, Indonèsia

latitud: 02-54S, longitud: 104-42E, altitud: 10 m

Observació

L'informe es va fer fa 12 hores i 39 minuts, a les 23:00 UTC
Vent 9 kt del Oest
Temperatura 23°C
Humitat 94%
Pressió 1012 hPa
Visibilitat: 1500 m
Escasses núvols a una alçada de 1000 ft, Cumulonimbus.
Cel ennuvolat a una alçada de 1000 ft
tempesta, pluja

METAR: WIPP 082300Z 28009KT 1500 TSRA FEW010CB BKN010 23/22 Q1012 RMKCB OVERHEAD

Hora: 18:39 (11:39 UTC)

Pronòstic

L'informe es va fer fa 23 hores i 39 minuts, a les 12:00 UTC
Pronòstic vàlid del 09 a les 12 UTC al 10 a les 12 UTC
Vent 6 kt del Nord/Nord-Oest
Visibilitat 10 km o més
Núvols disperses a una alçada de 1000 ft
Temporalment
l' 09 a les 20 UTC al 09 a les 24 UTC
Visibilitat: 2500 m
boirina

TAF: WIPP 091200Z 0912/1012 34006KT 9999 SCT010 TEMPO 0920/0924 2500 BR

Observacions i pronòstics meteorològics de més de 4000 aeroports (METAR i TAF).

Les estacions disponibles són els punts grocs i vermells al mapa.

Posi el ratolí al punt desitjat per veure el nom de l'estació.

Feu clic per veure les observacions i els pronòstics meteorològics.

Per canviar el mapa: feu clic els botons verds amb una creu de color negre per apropar; al botó verd amb un guió per allunyar la imatge; o en les fletxes verdes per a mapes adjacents.


METAR-TAF: